• Join FlightAware (Why Join?)
  • Login
  • US Flag 
12:54PM EST


 

Airport Tracker/Info


-or-


 

Live Flight TrackerFlight Track Log ✈ PDT4314 ✈ 27-Aug-2013 ✈ KPHL - KBGM

Flight Track Log - Related Links

Times and Time Zones

All times are in EDT time to prevent confusion due to time zone crossing. See the PDT4314 flight status page for this flight to view local times or setup timezone preferences in your user account.

Time Position Orientation Groundspeed Altitude Reporting Facility
EDT Latitude Longitude Course Direction KTS MPH feet Rate Location/Type
07:51PM 39.9000 -75.2333 294° West 115 132 700  Level Philadelphia TRACON
07:52PM 39.9167 -75.2833 294° West 151 174 1,900 1,200 Climbing Philadelphia TRACON
07:53PM 39.9167 -75.3333 270° West 146 168 2,900 1,080 Climbing Philadelphia TRACON
07:54PM 39.9333 -75.3833 294° West 158 182 4,000 960 Climbing Philadelphia TRACON
07:54PM 39.9411 -75.4089 292° West 157 181 4,500 1,260 Climbing New York Center
07:55PM 39.9617 -75.4642 296° West 157 181 6,100 1,260 Climbing New York Center
07:56PM 39.9900 -75.4878 327° Northwest 157 181 7,100 1,200 Climbing New York Center
07:57PM 40.0375 -75.4992 350° North 157 181 8,500 1,140 Climbing New York Center
07:58PM 40.0744 -75.5153 342° North 162 186 9,400 900 Climbing New York Center
07:59PM 40.1217 -75.5322 345° North 162 186 10,400 840 Climbing New York Center
08:00PM 40.1628 -75.5458 346° North 162 186 11,100 780 Climbing New York Center
08:01PM 40.2142 -75.5603 325° Northwest 179 206 12,000 420 Climbing New York Center
08:02PM 40.2681 -75.5722 350° North 189 217 12,000  Level New York Center
08:03PM 40.3342 -75.5822 353° North 206 237 12,000  Level New York Center
08:04PM 40.3961 -75.5972 350° North 219 252 12,000  Level New York Center
08:05PM 40.4561 -75.6097 351° North 219 252 12,000  Level New York Center
08:06PM 40.5122 -75.6164 355° North 224 258 12,000  Level New York Center
08:07PM 40.5744 -75.6236 355° North 224 258 12,000  Level New York Center
08:08PM 40.6425 -75.6367 352° North 219 252 12,000  Level New York Center
08:09PM 40.7044 -75.6519 349° North 219 252 12,000  Level New York Center
08:10PM 40.7644 -75.6644 351° North 219 252 12,000  Level New York Center
08:11PM 40.8222 -75.6794 349° North 219 252 12,000  Level New York Center
08:12PM 40.8819 -75.6922 351° North 219 252 12,000  Level New York Center
08:13PM 40.9500 -75.7108 348° North 219 252 12,000  Level New York Center
08:14PM 41.0039 -75.7200 353° North 219 252 12,000  Level New York Center
08:15PM 41.0636 -75.7328 351° North 219 252 12,000  Level New York Center
08:16PM 41.1317 -75.7489 350° North 219 252 12,000  Level New York Center
08:17PM 41.1917 -75.7586 353° North 219 252 12,000  Level New York Center
08:18PM 41.2536 -75.7717 351° North 219 252 12,000  Level New York Center
08:19PM 41.3133 -75.7897 347° North 219 252 12,000  Level New York Center
08:20PM 41.3753 -75.8028 351° North 219 252 12,000  Level New York Center
08:21PM 41.4375 -75.8075 357° North 219 252 12,000 -300 Level New York Center
08:22PM 41.4992 -75.8286 346° North 219 252 11,400 -840 Descending New York Center
08:23PM 41.5717 -75.8397 353° North 239 275 10,400 -960 Descending New York Center
08:24PM 41.6333 -75.8528 351° North 249 287 9,500 -720 Descending New York Center
08:25PM 41.7031 -75.8775 345° North 256 295 9,000 -600 Descending New York Center
08:26PM 41.7733 -75.8939 350° North 244 281 8,300 -900 Descending New York Center
08:27PM 41.8436 -75.9050 353° North 244 281 7,300 -960 Descending New York Center
08:28PM 41.9139 -75.9186 352° North 255 293 6,400 -1,020 Descending New York Center
08:29PM 41.9756 -75.9375 347° North 255 293 5,300 -1,080 Descending New York Center
08:30PM 42.0436 -75.9483 353° North 255 293 4,300 -900 Descending New York Center
08:31PM 42.1125 -75.9453 North 248 285 3,500 -840 Descending New York Center
08:32PM 42.1564 -75.9403 North 208 239 2,700 -780 Descending New York Center
08:33PM 42.2039 -75.9525 349° North 159 183 2,000 -720 Descending New York Center